EGCN/DSA METAR and TAF weather

Enter ICAO airport designator
Station Type Date Time Source
EGCN METAR 2019/04/18 20:50 UTC NOAA

EGCN 182050Z 01005KT 9000 NSC 09/07 Q1029


Station Type Date Time Source
EGCN Decoded METAR 2019/04/18 20:50 UTC NOAA

Station name not available
Apr 18, 2019 - 04:50 PM EDT / 2019.04.18 2050 UTC
Wind: from the N (010 degrees) at 6 MPH (5 KT):0
Visibility: 5 mile(s):0
Temperature: 48 F (9 C)
Dew Point: 44 F (7 C)
Relative Humidity: 87%
Pressure (altimeter): 30.39 in. Hg (1029 hPa)
ob: EGCN 182050Z 01005KT 9000 NSC 09/07 Q1029
cycle: 21

Station Type Date Time Source
EGCN TAF 2019/04/18 18:00 UTC NOAA

TAF EGCN 181658Z 1818/1918 06008KT 9999 FEW045
TEMPO 1818/1909 8000

Example: see airport list